Time;durP1;ratioP1;P1;durP2;ratioP2;P2;SDS_P1;SDS_P2;PMS_P1;PMS_P2;Temp;Humidity;BMP_temperature;BMP_pressure;BME280_temperature;BME280_humidity;BME280_pressure;Samples;Min_cycle;Max_cycle;Signal;HPM_P1;HPM_P2
2021/12/04 00:00:28;;;;;;;;;0.00;0.00;;;;;;;;5063230;28;63110;-83
2021/12/04 00:02:54;;;;;;;;;0.25;0.25;;;;;;;;5063289;28;61904;-83
2021/12/04 00:05:20;;;;;;;;;1.00;1.00;;;;;;;;5063937;28;61946;-83
2021/12/04 00:07:45;;;;;;;;;1.00;0.00;;;;;;;;5065015;28;61739;-83
2021/12/04 00:10:17;;;;;;;;;0.00;0.00;;;;;;;;5063284;28;62919;-83
2021/12/04 00:12:42;;;;;;;;;0.00;0.00;;;;;;;;5063144;28;61962;-83
2021/12/04 00:15:08;;;;;;;;;2.00;0.75;;;;;;;;5063465;28;62106;-83
2021/12/04 00:17:33;;;;;;;;;4.75;2.00;;;;;;;;5062809;28;62094;-83
2021/12/04 00:19:59;;;;;;;;;0.25;0.25;;;;;;;;5063392;28;62808;-83
2021/12/04 00:22:25;;;;;;;;;0.00;0.00;;;;;;;;5064056;28;61897;-83
2021/12/04 00:24:50;;;;;;;;;0.00;0.00;;;;;;;;5062065;28;62273;-83
2021/12/04 00:27:15;;;;;;;;;0.25;0.25;;;;;;;;5064169;28;61898;-83
2021/12/04 00:29:41;;;;;;;;;0.00;0.00;;;;;;;;5061799;28;63357;-83
2021/12/04 00:32:13;;;;;;;;;0.00;0.00;;;;;;;;5064234;28;62120;-84
2021/12/04 00:34:49;;;;;;;;;1.00;0.00;;;;;;;;5064528;28;61869;-84
2021/12/04 00:37:33;;;;;;;;;0.00;0.00;;;;;;;;5061580;28;61702;-84
2021/12/04 00:50:55;;;;;;;;;0.00;0.00;;;;;;;;5043258;28;62375;-84
2021/12/04 00:53:21;;;;;;;;;0.00;0.00;;;;;;;;5041833;28;61833;-84
2021/12/04 00:55:46;;;;;;;;;1.00;0.00;;;;;;;;5042529;28;61678;-84
2021/12/04 00:58:11;;;;;;;;;0.00;0.00;;;;;;;;5043879;28;61723;-84
2021/12/04 01:00:38;;;;;;;;;0.00;0.00;;;;;;;;5041261;28;62001;-84
2021/12/04 01:03:04;;;;;;;;;1.75;0.75;;;;;;;;5043387;28;61712;-83
2021/12/04 01:05:29;;;;;;;;;0.00;0.00;;;;;;;;5042048;28;61770;-84
2021/12/04 01:07:54;;;;;;;;;0.00;0.00;;;;;;;;5043474;28;61856;-84
2021/12/04 01:10:20;;;;;;;;;0.00;0.00;;;;;;;;5042616;28;61954;-84
2021/12/04 01:12:45;;;;;;;;;0.00;0.00;;;;;;;;5042039;28;61823;-84
2021/12/04 01:15:10;;;;;;;;;0.00;0.00;;;;;;;;5042785;28;62097;-84
2021/12/04 01:17:35;;;;;;;;;1.00;0.00;;;;;;;;5043203;28;61673;-84
2021/12/04 01:20:01;;;;;;;;;0.00;0.00;;;;;;;;5042660;28;61988;-84
2021/12/04 01:22:26;;;;;;;;;0.25;0.00;;;;;;;;5042799;28;61740;-84
2021/12/04 01:24:52;;;;;;;;;0.00;0.00;;;;;;;;5041924;28;61970;-84
2021/12/04 01:27:18;;;;;;;;;0.00;0.00;;;;;;;;5043323;28;61888;-84
2021/12/04 01:29:43;;;;;;;;;0.00;0.00;;;;;;;;5042264;28;62989;-84
2021/12/04 01:32:09;;;;;;;;;0.00;0.00;;;;;;;;5041922;28;61820;-84
2021/12/04 01:34:35;;;;;;;;;0.00;0.00;;;;;;;;5041422;28;61838;-84
2021/12/04 01:37:01;;;;;;;;;0.00;0.00;;;;;;;;5053466;28;61921;-84
2021/12/04 01:39:26;;;;;;;;;0.00;0.00;;;;;;;;5062056;28;61885;-84
2021/12/04 01:41:51;;;;;;;;;0.00;0.00;;;;;;;;5061639;28;62058;-84
2021/12/04 01:44:17;;;;;;;;;0.00;0.00;;;;;;;;5061289;28;62072;-84
2021/12/04 01:46:42;;;;;;;;;0.00;0.00;;;;;;;;5063374;28;62131;-84
2021/12/04 01:49:09;;;;;;;;;0.00;0.00;;;;;;;;5061991;28;61918;-84
2021/12/04 01:51:34;;;;;;;;;0.00;0.00;;;;;;;;5061126;28;62198;-84
2021/12/04 01:53:59;;;;;;;;;0.00;0.00;;;;;;;;5061773;28;62080;-84
2021/12/04 01:56:28;;;;;;;;;0.00;0.00;;;;;;;;5063097;28;61610;-84
2021/12/04 01:58:55;;;;;;;;;0.00;0.00;;;;;;;;5060646;28;61918;-84
2021/12/04 02:01:20;;;;;;;;;0.00;0.00;;;;;;;;5062467;28;61949;-84
2021/12/04 02:03:45;;;;;;;;;0.00;0.00;;;;;;;;5062496;28;62159;-85
2021/12/04 02:06:12;;;;;;;;;0.00;0.00;;;;;;;;5061141;28;61915;-84
2021/12/04 02:08:38;;;;;;;;;0.50;0.00;;;;;;;;5060797;28;63600;-84
2021/12/04 02:11:03;;;;;;;;;0.00;0.00;;;;;;;;5060948;28;61892;-84
2021/12/04 02:13:29;;;;;;;;;0.00;0.00;;;;;;;;5062786;28;61739;-84
2021/12/04 02:15:55;;;;;;;;;0.00;0.00;;;;;;;;5061210;28;62100;-85
2021/12/04 02:18:21;;;;;;;;;0.00;0.00;;;;;;;;5059865;28;61851;-83
2021/12/04 02:20:47;;;;;;;;;0.00;0.00;;;;;;;;5060563;28;61896;-85
2021/12/04 02:23:13;;;;;;;;;0.00;0.00;;;;;;;;5061438;28;62275;-85
2021/12/04 02:25:38;;;;;;;;;0.00;0.00;;;;;;;;5060975;28;62183;-84
2021/12/04 02:28:06;;;;;;;;;0.00;0.00;;;;;;;;5062044;28;63116;-85
2021/12/04 02:30:35;;;;;;;;;0.00;0.00;;;;;;;;5060397;28;62015;-84
2021/12/04 02:33:01;;;;;;;;;0.00;0.00;;;;;;;;5062305;28;61906;-84
2021/12/04 02:35:26;;;;;;;;;0.00;0.00;;;;;;;;5060887;28;62140;-85
2021/12/04 02:37:52;;;;;;;;;0.00;0.00;;;;;;;;5061303;28;62926;-85
2021/12/04 02:40:19;;;;;;;;;0.00;0.00;;;;;;;;5061066;28;61911;-84
2021/12/04 02:42:45;;;;;;;;;1.00;0.00;;;;;;;;5062226;28;61915;-85
2021/12/04 02:45:10;;;;;;;;;0.00;0.00;;;;;;;;5060583;28;62039;-85
2021/12/04 02:47:36;;;;;;;;;1.00;0.00;;;;;;;;5061390;28;64644;-85
2021/12/04 02:50:05;;;;;;;;;0.00;0.00;;;;;;;;5065460;28;62051;-85
2021/12/04 02:52:31;;;;;;;;;0.00;0.00;;;;;;;;5064720;28;61776;-84
2021/12/04 02:54:56;;;;;;;;;0.00;0.00;;;;;;;;5066012;28;61677;-85
2021/12/04 02:57:21;;;;;;;;;0.75;0.00;;;;;;;;5064021;28;64386;-85
2021/12/04 02:59:48;;;;;;;;;0.00;0.00;;;;;;;;5063041;28;61882;-85
2021/12/04 03:02:19;;;;;;;;;0.00;0.00;;;;;;;;5065603;28;61985;-84
2021/12/04 03:04:45;;;;;;;;;0.00;0.00;;;;;;;;5066050;28;61840;-85
2021/12/04 03:07:10;;;;;;;;;0.00;0.00;;;;;;;;5065237;28;61841;-85
2021/12/04 03:09:36;;;;;;;;;0.00;0.00;;;;;;;;5065595;28;62276;-85
2021/12/04 03:12:02;;;;;;;;;0.00;0.00;;;;;;;;5064260;28;62075;-85
2021/12/04 03:14:27;;;;;;;;;2.00;0.00;;;;;;;;5065199;28;61933;-85
2021/12/04 03:16:53;;;;;;;;;0.00;0.00;;;;;;;;5063026;28;61874;-85
2021/12/04 03:19:18;;;;;;;;;0.00;0.00;;;;;;;;5065086;28;61902;-85
2021/12/04 03:21:44;;;;;;;;;0.00;0.00;;;;;;;;5065244;28;61959;-85
2021/12/04 03:24:12;;;;;;;;;0.00;0.00;;;;;;;;5064173;28;62063;-85
2021/12/04 03:26:38;;;;;;;;;1.00;0.00;;;;;;;;5063693;28;63735;-85
2021/12/04 03:29:09;;;;;;;;;0.00;0.00;;;;;;;;5063455;28;61732;-85
2021/12/04 03:42:30;;;;;;;;;0.00;0.00;;;;;;;;5045062;28;61944;-85
2021/12/04 03:44:56;;;;;;;;;0.25;0.00;;;;;;;;5042927;28;62177;-85
2021/12/04 03:47:21;;;;;;;;;0.00;0.00;;;;;;;;5043693;28;61852;-84
2021/12/04 03:49:47;;;;;;;;;0.50;0.00;;;;;;;;5043199;28;61950;-85
2021/12/04 03:52:13;;;;;;;;;0.00;0.00;;;;;;;;5042721;28;62214;-85
2021/12/04 03:54:39;;;;;;;;;0.00;0.00;;;;;;;;5045040;28;61947;-85
2021/12/04 03:57:05;;;;;;;;;1.00;0.00;;;;;;;;5042565;28;63720;-85
2021/12/04 03:59:59;;;;;;;;;0.00;0.00;;;;;;;;5042743;28;61906;-80
2021/12/04 04:02:25;;;;;;;;;1.00;0.00;;;;;;;;5042508;28;61890;-85
2021/12/04 04:04:50;;;;;;;;;0.00;0.00;;;;;;;;5043417;28;62173;-85
2021/12/04 04:07:15;;;;;;;;;0.00;0.00;;;;;;;;5042593;28;62087;-85
2021/12/04 04:09:41;;;;;;;;;0.00;0.00;;;;;;;;5044578;28;61811;-85
2021/12/04 04:12:06;;;;;;;;;0.00;0.00;;;;;;;;5043171;28;61948;-85
2021/12/04 04:14:32;;;;;;;;;0.00;0.00;;;;;;;;5043620;28;61759;-84
2021/12/04 04:16:57;;;;;;;;;0.75;0.00;;;;;;;;5042528;28;61825;-85
2021/12/04 04:19:23;;;;;;;;;3.00;0.00;;;;;;;;5042530;28;61689;-85
2021/12/04 04:21:53;;;;;;;;;0.00;0.00;;;;;;;;5044350;28;62080;-85
2021/12/04 04:24:18;;;;;;;;;0.00;0.00;;;;;;;;5044455;28;62147;-85
2021/12/04 04:26:44;;;;;;;;;0.00;0.00;;;;;;;;5043713;28;62856;-85
2021/12/04 04:29:10;;;;;;;;;0.00;0.00;;;;;;;;5043343;28;62144;-85
2021/12/04 04:31:36;;;;;;;;;0.00;0.00;;;;;;;;5044175;28;61965;-85
2021/12/04 04:34:05;;;;;;;;;0.00;0.00;;;;;;;;5044217;28;61791;-85
2021/12/04 05:11:35;;;;;;;;;0.00;0.00;;;;;;;;5042853;28;61758;-84
2021/12/04 05:13:57;;;;;;;;;0.00;0.00;;;;;;;;5042643;28;61897;-83
2021/12/04 05:16:29;;;;;;;;;0.00;0.00;;;;;;;;5043441;28;61854;-84
2021/12/04 05:19:01;;;;;;;;;0.00;0.00;;;;;;;;5041123;28;62771;-85
2021/12/04 05:21:32;;;;;;;;;0.00;0.00;;;;;;;;5041767;28;61724;-85
2021/12/04 05:23:57;;;;;;;;;0.25;0.00;;;;;;;;5041806;28;62202;-84
2021/12/04 05:26:27;;;;;;;;;0.00;0.00;;;;;;;;5043404;28;62041;-84
2021/12/04 05:28:53;;;;;;;;;0.00;0.00;;;;;;;;5042377;28;62082;-84
2021/12/04 05:31:20;;;;;;;;;1.00;0.00;;;;;;;;5042888;28;62022;-85
2021/12/04 05:33:46;;;;;;;;;0.00;0.00;;;;;;;;5043314;28;61803;-85
2021/12/04 05:36:13;;;;;;;;;0.00;0.00;;;;;;;;5047123;28;62069;-85
2021/12/04 05:38:38;;;;;;;;;0.00;0.00;;;;;;;;5062349;28;62044;-85
2021/12/04 05:41:04;;;;;;;;;0.00;0.00;;;;;;;;5063113;28;61799;-85
2021/12/04 05:43:30;;;;;;;;;0.00;0.00;;;;;;;;5062674;28;61707;-85
2021/12/04 05:46:05;;;;;;;;;0.00;0.00;;;;;;;;5062790;28;61610;-85
2021/12/04 05:48:48;;;;;;;;;3.00;0.00;;;;;;;;5061988;28;61888;-85
2021/12/04 05:51:34;;;;;;;;;0.00;0.00;;;;;;;;5062801;28;61913;-84
2021/12/04 05:54:18;;;;;;;;;0.00;0.00;;;;;;;;5062790;28;61711;-85
2021/12/04 05:56:43;;;;;;;;;0.00;0.00;;;;;;;;5062708;28;61870;-85
2021/12/04 05:59:09;;;;;;;;;0.00;0.00;;;;;;;;5060166;28;62867;-84
2021/12/04 06:01:34;;;;;;;;;0.00;0.00;;;;;;;;5061299;28;62096;-85
2021/12/04 06:03:59;;;;;;;;;0.00;0.00;;;;;;;;5061768;28;62155;-85
2021/12/04 06:06:25;;;;;;;;;0.00;0.00;;;;;;;;5062402;28;62015;-85
2021/12/04 06:08:50;;;;;;;;;0.00;0.00;;;;;;;;5060390;28;64441;-85
2021/12/04 06:11:16;;;;;;;;;0.00;0.00;;;;;;;;5060537;28;62177;-85
2021/12/04 06:13:42;;;;;;;;;0.50;0.00;;;;;;;;5061154;28;61917;-84
2021/12/04 06:16:07;;;;;;;;;1.00;0.00;;;;;;;;5061367;28;61938;-85
2021/12/04 06:18:33;;;;;;;;;0.25;0.00;;;;;;;;5060968;28;62318;-84
2021/12/04 06:23:42;;;;;;;;;0.00;0.00;;;;;;;;5061941;28;61757;-85
2021/12/04 06:26:09;;;;;;;;;0.00;0.00;;;;;;;;5062293;28;61787;-85
2021/12/04 06:28:34;;;;;;;;;2.50;0.00;;;;;;;;5061977;28;62292;-85
2021/12/04 06:31:00;;;;;;;;;0.00;0.00;;;;;;;;5061864;28;61953;-85
2021/12/04 06:33:26;;;;;;;;;0.25;0.00;;;;;;;;5062652;28;61790;-84
2021/12/04 06:35:52;;;;;;;;;0.00;0.00;;;;;;;;5060874;28;61833;-85
2021/12/04 06:38:18;;;;;;;;;1.00;0.00;;;;;;;;5059854;28;63255;-85
2021/12/04 06:40:44;;;;;;;;;0.00;0.00;;;;;;;;5060124;28;62180;-84
2021/12/04 06:43:09;;;;;;;;;2.75;0.00;;;;;;;;5078022;28;61802;-85
2021/12/04 06:45:37;;;;;;;;;0.00;0.00;;;;;;;;5062266;28;61806;-84
2021/12/04 06:48:07;;;;;;;;;0.00;0.00;;;;;;;;5061116;28;61898;-84
2021/12/04 06:55:48;;;;;;;;;1.00;0.00;;;;;;;;5061179;28;61944;-81
2021/12/04 06:58:14;;;;;;;;;1.75;0.25;;;;;;;;5076965;28;61890;-81
2021/12/04 07:00:39;;;;;;;;;0.00;0.00;;;;;;;;5074563;28;61914;-81
2021/12/04 07:03:04;;;;;;;;;1.00;0.00;;;;;;;;5060471;28;61898;-78
2021/12/04 07:05:30;;;;;;;;;0.50;0.00;;;;;;;;5061912;28;61715;-78
2021/12/04 07:07:55;;;;;;;;;0.00;0.00;;;;;;;;5059843;28;61930;-78
2021/12/04 07:10:21;;;;;;;;;0.00;0.00;;;;;;;;5059719;28;61795;-78
2021/12/04 07:12:46;;;;;;;;;0.75;0.00;;;;;;;;5060473;28;61776;-78
2021/12/04 07:15:12;;;;;;;;;0.00;0.00;;;;;;;;5060497;28;61975;-78
2021/12/04 07:17:38;;;;;;;;;1.00;0.00;;;;;;;;5059351;28;63777;-77
2021/12/04 07:20:04;;;;;;;;;0.00;0.00;;;;;;;;5059790;28;62177;-78
2021/12/04 07:22:30;;;;;;;;;0.00;0.00;;;;;;;;5060684;28;61797;-79
2021/12/04 07:24:55;;;;;;;;;1.00;0.00;;;;;;;;5061582;28;62016;-79
2021/12/04 07:27:20;;;;;;;;;0.00;0.00;;;;;;;;5061152;28;62039;-80
2021/12/04 07:29:46;;;;;;;;;0.25;0.00;;;;;;;;5061371;28;61971;-80
2021/12/04 07:32:11;;;;;;;;;2.25;0.00;;;;;;;;5061627;28;62509;-80
2021/12/04 07:34:36;;;;;;;;;0.00;0.00;;;;;;;;5063974;28;62200;-80
2021/12/04 07:37:03;;;;;;;;;1.75;0.75;;;;;;;;5062448;28;62549;-79
2021/12/04 07:39:28;;;;;;;;;2.75;0.00;;;;;;;;5043142;28;61777;-79
2021/12/04 07:41:54;;;;;;;;;0.25;0.00;;;;;;;;5044552;28;62406;-79
2021/12/04 07:44:19;;;;;;;;;1.50;0.00;;;;;;;;5044579;28;61943;-80
2021/12/04 07:46:44;;;;;;;;;1.50;1.50;;;;;;;;5042760;28;62001;-77
2021/12/04 07:49:09;;;;;;;;;2.25;1.00;;;;;;;;5043711;28;62072;-76
2021/12/04 07:51:35;;;;;;;;;0.00;0.00;;;;;;;;5044141;28;62012;-79
2021/12/04 07:54:01;;;;;;;;;0.25;0.25;;;;;;;;5042887;28;61861;-80
2021/12/04 07:56:26;;;;;;;;;0.00;0.00;;;;;;;;5042069;28;63437;-83
2021/12/04 07:58:51;;;;;;;;;1.25;0.00;;;;;;;;5043513;28;61891;-78
2021/12/04 08:01:17;;;;;;;;;0.00;0.00;;;;;;;;5043538;28;62450;-80
2021/12/04 08:03:42;;;;;;;;;0.00;0.00;;;;;;;;5042957;28;61809;-80
2021/12/04 08:06:08;;;;;;;;;0.00;0.00;;;;;;;;5043635;28;61775;-86
2021/12/04 08:08:33;;;;;;;;;1.00;0.00;;;;;;;;5057018;28;62128;-83
2021/12/04 08:10:59;;;;;;;;;0.00;0.00;;;;;;;;5063025;28;61821;-84
2021/12/04 08:13:28;;;;;;;;;0.00;0.00;;;;;;;;5061564;28;61866;-77
2021/12/04 08:15:53;;;;;;;;;0.00;0.00;;;;;;;;5059688;28;62320;-83
2021/12/04 08:18:19;;;;;;;;;0.00;0.00;;;;;;;;5060770;28;62154;-82
2021/12/04 08:20:45;;;;;;;;;0.00;0.00;;;;;;;;5060792;28;62026;-82
2021/12/04 08:23:10;;;;;;;;;0.00;0.00;;;;;;;;5056240;28;62513;-85
2021/12/04 08:25:36;;;;;;;;;0.00;0.00;;;;;;;;5062522;28;64223;-84
2021/12/04 08:28:02;;;;;;;;;0.00;0.00;;;;;;;;5061468;28;62074;-84
2021/12/04 08:30:29;;;;;;;;;0.25;0.00;;;;;;;;5061994;28;61939;-83
2021/12/04 08:32:56;;;;;;;;;0.00;0.00;;;;;;;;5061587;28;62110;-83
2021/12/04 08:35:24;;;;;;;;;0.50;0.00;;;;;;;;5057197;28;62041;-85
2021/12/04 08:37:49;;;;;;;;;0.00;0.00;;;;;;;;5059950;28;62167;-83
2021/12/04 08:40:15;;;;;;;;;0.50;0.00;;;;;;;;5062387;28;62129;-82
2021/12/04 08:42:44;;;;;;;;;0.00;0.00;;;;;;;;5063371;28;62041;-85
2021/12/04 08:45:10;;;;;;;;;0.00;0.00;;;;;;;;5060368;28;63296;-80
2021/12/04 08:47:37;;;;;;;;;0.00;0.00;;;;;;;;5063179;28;61964;-82
2021/12/04 08:50:03;;;;;;;;;0.00;0.00;;;;;;;;5063338;28;61731;-82
2021/12/04 08:52:28;;;;;;;;;0.00;0.00;;;;;;;;5061128;28;62164;-82
2021/12/04 08:54:54;;;;;;;;;0.00;0.00;;;;;;;;5060783;28;63266;-82
2021/12/04 08:57:19;;;;;;;;;0.00;0.00;;;;;;;;5060798;28;61905;-82
2021/12/04 08:59:47;;;;;;;;;1.00;0.00;;;;;;;;5062233;28;62065;-82
2021/12/04 09:02:13;;;;;;;;;0.00;0.00;;;;;;;;5057575;28;62000;-82
2021/12/04 09:04:39;;;;;;;;;1.00;0.00;;;;;;;;5059137;28;61941;-82
2021/12/04 09:07:07;;;;;;;;;0.00;0.00;;;;;;;;5060099;28;61971;-81
2021/12/04 09:09:33;;;;;;;;;0.00;0.00;;;;;;;;5058652;28;62109;-79
2021/12/04 09:12:02;;;;;;;;;0.00;0.00;;;;;;;;5060951;28;62918;-81
2021/12/04 09:14:30;;;;;;;;;1.00;0.00;;;;;;;;5061773;28;61865;-82
2021/12/04 09:16:56;;;;;;;;;2.00;0.00;;;;;;;;5058720;28;61875;-83
2021/12/04 09:19:23;;;;;;;;;0.00;0.00;;;;;;;;5060841;28;61951;-82
2021/12/04 09:21:49;;;;;;;;;0.00;0.00;;;;;;;;5062201;28;61988;-82
2021/12/04 09:24:15;;;;;;;;;1.00;0.00;;;;;;;;5062106;28;62933;-82
2021/12/04 10:22:29;;;;;;;;;0.00;0.00;;;;;;;;5062292;28;61903;-83
2021/12/04 10:25:14;;;;;;;;;3.00;0.25;;;;;;;;5062087;28;61795;-83
2021/12/04 10:33:19;;;;;;;;;0.00;0.00;;;;;;;;4998249;28;62203;-82
2021/12/04 10:35:45;;;;;;;;;0.00;0.00;;;;;;;;4998583;28;62019;-82
2021/12/04 10:38:22;;;;;;;;;1.50;0.00;;;;;;;;4995294;28;63981;-82
2021/12/04 10:40:49;;;;;;;;;0.00;0.00;;;;;;;;4997670;28;62018;-82
2021/12/04 10:43:16;;;;;;;;;0.00;0.00;;;;;;;;4998374;28;62054;-82
2021/12/04 10:45:44;;;;;;;;;0.00;0.00;;;;;;;;4998490;28;61841;-83
2021/12/04 10:48:14;;;;;;;;;0.00;0.00;;;;;;;;4998233;28;62002;-82
2021/12/04 10:50:51;;;;;;;;;0.00;0.00;;;;;;;;4982429;28;62096;-82
2021/12/04 10:53:26;;;;;;;;;2.00;0.00;;;;;;;;4999709;28;61904;-82
2021/12/04 11:03:42;;;;;;;;;3.00;0.00;;;;;;;;4998946;28;61960;-83
2021/12/04 11:28:08;;;;;;;;;2.00;1.00;;;;;;;;5053813;28;61845;-83
2021/12/04 11:38:54;;;;;;;;;1.00;1.00;;;;;;;;5055074;28;61995;-80
2021/12/04 11:41:26;;;;;;;;;2.50;1.00;;;;;;;;5060531;28;63206;-82
2021/12/04 11:43:59;;;;;;;;;10.25;6.50;;;;;;;;5062212;28;61768;-81
2021/12/04 11:46:40;;;;;;;;;0.75;0.00;;;;;;;;5061493;28;62169;-81
2021/12/04 11:49:09;;;;;;;;;1.00;1.00;;;;;;;;5060057;28;61886;-82
2021/12/04 11:51:34;;;;;;;;;7.00;4.00;;;;;;;;5062469;28;61953;-76
2021/12/04 11:54:09;;;;;;;;;2.25;1.00;;;;;;;;5062931;28;62096;-76
2021/12/04 11:56:35;;;;;;;;;0.50;0.50;;;;;;;;5060711;28;61763;-74
2021/12/04 11:59:00;;;;;;;;;5.25;1.25;;;;;;;;5060606;28;62223;-80
2021/12/04 12:01:38;;;;;;;;;1.75;1.50;;;;;;;;5060382;28;63613;-77
2021/12/04 12:04:04;;;;;;;;;1.00;1.00;;;;;;;;5076058;28;62313;-78
2021/12/04 12:06:41;;;;;;;;;5.25;3.50;;;;;;;;5062974;28;61914;-77
2021/12/04 12:09:08;;;;;;;;;2.25;1.50;;;;;;;;5064144;28;62155;-77
2021/12/04 12:11:34;;;;;;;;;6.75;4.25;;;;;;;;5062929;28;63503;-77
2021/12/04 12:14:04;;;;;;;;;2.00;2.00;;;;;;;;5064002;28;61855;-78
2021/12/04 12:16:35;;;;;;;;;3.50;2.00;;;;;;;;5064090;28;61928;-77
2021/12/04 12:19:07;;;;;;;;;7.50;6.75;;;;;;;;5063497;28;61848;-76
2021/12/04 12:21:56;;;;;;;;;3.00;2.00;;;;;;;;5046909;28;64264;-78
2021/12/04 12:36:03;;;;;;;;;6.25;3.50;;;;;;;;5053425;28;62159;-78
2021/12/04 12:38:32;;;;;;;;;4.75;4.00;;;;;;;;5057709;28;61822;-78
2021/12/04 12:40:58;;;;;;;;;9.25;6.75;;;;;;;;5059431;28;61795;-76
2021/12/04 12:43:32;;;;;;;;;5.50;2.50;;;;;;;;5059408;28;63726;-80
2021/12/04 12:45:58;;;;;;;;;4.00;2.00;;;;;;;;5056849;28;62072;-80
2021/12/04 12:48:24;;;;;;;;;12.00;3.75;;;;;;;;5051299;28;62054;-80
2021/12/04 12:50:49;;;;;;;;;7.75;2.50;;;;;;;;5050938;28;62173;-80
2021/12/04 12:53:17;;;;;;;;;4.25;4.25;;;;;;;;5045237;28;63009;-81
2021/12/04 12:55:44;;;;;;;;;5.00;3.25;;;;;;;;5050098;28;61779;-80
2021/12/04 12:58:25;;;;;;;;;23.00;17.50;;;;;;;;5053072;28;61976;-80
2021/12/04 13:11:57;;;;;;;;;2.00;2.00;;;;;;;;5051325;28;61904;-82
2021/12/04 13:14:36;;;;;;;;;5.50;4.75;;;;;;;;5053110;28;62019;-81
2021/12/04 13:17:07;;;;;;;;;8.75;3.50;;;;;;;;5060730;28;61388;-78
2021/12/04 13:19:37;;;;;;;;;9.00;6.00;;;;;;;;5065985;28;62147;-81
2021/12/04 13:22:05;;;;;;;;;8.00;2.00;;;;;;;;5050411;28;61796;-80
2021/12/04 13:24:32;;;;;;;;;10.00;5.25;;;;;;;;5047196;28;63816;-82
2021/12/04 13:26:57;;;;;;;;;3.00;1.00;;;;;;;;5050517;28;61902;-80
2021/12/04 13:29:25;;;;;;;;;6.00;4.00;;;;;;;;5052795;28;62023;-81
2021/12/04 13:31:54;;;;;;;;;2.25;2.25;;;;;;;;5047431;28;62149;-81
2021/12/04 13:34:27;;;;;;;;;3.00;1.75;;;;;;;;5052784;28;61978;-81
2021/12/04 13:36:53;;;;;;;;;4.50;1.25;;;;;;;;5047871;28;62067;-82
2021/12/04 13:39:19;;;;;;;;;4.50;2.00;;;;;;;;5050111;28;62143;-81
2021/12/04 13:41:46;;;;;;;;;1.00;1.00;;;;;;;;5057163;28;62005;-81
2021/12/04 13:44:14;;;;;;;;;3.25;1.00;;;;;;;;5059856;28;62101;-80
2021/12/04 13:46:44;;;;;;;;;9.75;1.00;;;;;;;;5061542;28;61779;-79
2021/12/04 13:49:09;;;;;;;;;2.00;2.00;;;;;;;;5060265;28;61982;-80
2021/12/04 13:51:35;;;;;;;;;1.25;0.50;;;;;;;;5055369;28;61809;-83
2021/12/04 13:54:02;;;;;;;;;2.75;1.50;;;;;;;;5049815;28;63185;-82
2021/12/04 13:56:27;;;;;;;;;5.25;0.00;;;;;;;;5055862;28;62016;-81
2021/12/04 13:58:58;;;;;;;;;3.00;1.00;;;;;;;;5058841;28;61772;-81
2021/12/04 14:01:24;;;;;;;;;1.75;1.00;;;;;;;;5056695;28;61992;-80
2021/12/04 14:03:53;;;;;;;;;3.00;2.00;;;;;;;;5059359;28;62083;-81
2021/12/04 14:06:19;;;;;;;;;6.00;2.00;;;;;;;;5058026;28;61951;-82
2021/12/04 14:08:56;;;;;;;;;3.75;0.75;;;;;;;;5060126;28;61786;-81
2021/12/04 14:11:38;;;;;;;;;7.00;3.50;;;;;;;;5049925;28;62117;-81
2021/12/04 14:14:14;;;;;;;;;7.75;5.75;;;;;;;;5051212;28;63761;-81
2021/12/04 14:16:41;;;;;;;;;4.75;3.50;;;;;;;;5057286;28;61887;-82
2021/12/04 14:19:17;;;;;;;;;5.75;3.00;;;;;;;;5051634;28;62038;-81
2021/12/04 14:21:50;;;;;;;;;2.25;2.25;;;;;;;;5050986;28;61892;-78
2021/12/04 14:24:22;;;;;;;;;3.25;1.75;;;;;;;;5057134;28;63321;-81
2021/12/04 14:26:52;;;;;;;;;5.00;5.00;;;;;;;;5056677;28;61915;-81
2021/12/04 14:29:17;;;;;;;;;7.50;2.00;;;;;;;;5055044;28;61882;-82
2021/12/04 14:31:45;;;;;;;;;2.00;2.00;;;;;;;;5054950;28;62162;-79
2021/12/04 14:34:18;;;;;;;;;1.00;1.00;;;;;;;;5051244;28;62931;-80
2021/12/04 14:36:43;;;;;;;;;6.50;4.75;;;;;;;;5055767;28;61838;-80
2021/12/04 14:39:09;;;;;;;;;1.25;1.00;;;;;;;;5053470;28;61784;-80
2021/12/04 14:41:34;;;;;;;;;1.00;1.00;;;;;;;;5059883;28;62044;-79
2021/12/04 14:43:59;;;;;;;;;5.00;3.00;;;;;;;;5058261;28;61756;-80
2021/12/04 14:46:26;;;;;;;;;2.00;1.00;;;;;;;;5056700;28;62208;-81
2021/12/04 14:48:54;;;;;;;;;5.00;2.00;;;;;;;;5051661;28;62111;-80
2021/12/04 14:51:20;;;;;;;;;2.00;1.75;;;;;;;;5058366;28;61802;-80
2021/12/04 14:53:48;;;;;;;;;6.50;3.75;;;;;;;;5052987;28;63722;-81
2021/12/04 14:56:13;;;;;;;;;4.50;4.00;;;;;;;;5059583;28;62051;-82
2021/12/04 14:58:39;;;;;;;;;7.50;7.50;;;;;;;;5055828;28;61924;-78
2021/12/04 15:01:07;;;;;;;;;4.25;2.50;;;;;;;;5056249;28;61844;-78
2021/12/04 15:03:32;;;;;;;;;1.50;0.00;;;;;;;;5054888;28;62648;-79
2021/12/04 15:06:04;;;;;;;;;1.50;0.00;;;;;;;;5055714;28;61861;-79
2021/12/04 15:08:39;;;;;;;;;2.75;2.00;;;;;;;;5058981;28;61913;-78
2021/12/04 15:11:14;;;;;;;;;1.00;1.00;;;;;;;;5060745;28;62446;-76
2021/12/04 15:13:42;;;;;;;;;3.25;2.00;;;;;;;;5040903;28;62680;-78
2021/12/04 15:16:08;;;;;;;;;0.00;0.00;;;;;;;;5057975;28;62094;-80
2021/12/04 15:18:36;;;;;;;;;6.00;2.00;;;;;;;;5047113;28;62019;-80
2021/12/04 15:21:05;;;;;;;;;5.50;1.00;;;;;;;;5051462;28;62282;-80
2021/12/04 15:23:31;;;;;;;;;3.25;2.00;;;;;;;;5049577;28;61894;-80
2021/12/04 15:26:05;;;;;;;;;0.50;0.00;;;;;;;;5049987;28;62002;-81
2021/12/04 15:28:31;;;;;;;;;6.00;2.75;;;;;;;;5047487;28;61796;-80
2021/12/04 15:30:58;;;;;;;;;0.50;0.00;;;;;;;;5050361;28;61959;-81
2021/12/04 15:33:25;;;;;;;;;4.00;0.00;;;;;;;;5045328;28;61856;-81
2021/12/04 15:35:51;;;;;;;;;1.00;1.00;;;;;;;;5043256;28;61985;-81
2021/12/04 15:38:32;;;;;;;;;1.00;1.00;;;;;;;;5066985;28;61716;-81
2021/12/04 15:44:04;;;;;;;;;1.75;1.50;;;;;;;;5027047;28;61882;-82
2021/12/04 15:54:02;;;;;;;;;1.00;0.00;;;;;;;;5052965;28;62938;-79
2021/12/04 15:56:29;;;;;;;;;2.75;1.25;;;;;;;;5059007;28;61946;-85
2021/12/04 15:58:54;;;;;;;;;4.25;1.50;;;;;;;;5056383;28;61964;-82
2021/12/04 16:01:26;;;;;;;;;2.00;0.00;;;;;;;;5062604;28;62001;-82
2021/12/04 16:03:51;;;;;;;;;0.75;0.75;;;;;;;;5057063;28;63010;-82
2021/12/04 16:06:16;;;;;;;;;2.00;1.00;;;;;;;;5050695;28;61789;-85
2021/12/04 16:08:42;;;;;;;;;1.75;1.00;;;;;;;;5061640;28;61944;-78
2021/12/04 16:11:08;;;;;;;;;0.00;0.00;;;;;;;;5061864;28;62150;-83
2021/12/04 16:13:35;;;;;;;;;0.00;0.00;;;;;;;;5062135;28;62802;-83
2021/12/04 16:16:09;;;;;;;;;1.25;1.25;;;;;;;;5063027;28;61884;-84
2021/12/04 16:18:34;;;;;;;;;7.75;6.00;;;;;;;;5045798;28;61750;-84
2021/12/04 16:21:01;;;;;;;;;2.75;2.00;;;;;;;;5057561;28;61850;-83
2021/12/04 16:23:32;;;;;;;;;17.75;12.75;;;;;;;;5061873;28;62093;-83
2021/12/04 16:25:57;;;;;;;;;4.50;1.00;;;;;;;;5044242;28;61847;-84
2021/12/04 16:36:36;;;;;;;;;0.00;0.00;;;;;;;;5053872;28;61777;-82
2021/12/04 16:39:01;;;;;;;;;1.00;1.00;;;;;;;;5042964;28;61838;-81
2021/12/04 16:41:28;;;;;;;;;6.00;2.00;;;;;;;;5043143;28;61797;-84
2021/12/04 16:43:53;;;;;;;;;1.75;1.00;;;;;;;;5055756;28;63755;-80
2021/12/04 16:46:20;;;;;;;;;4.25;0.50;;;;;;;;5057454;28;62019;-84
2021/12/04 16:48:58;;;;;;;;;0.00;0.00;;;;;;;;5056215;28;61911;-75
2021/12/04 16:59:22;;;;;;;;;1.75;0.00;;;;;;;;5060537;28;61962;-78
2021/12/04 17:01:49;;;;;;;;;5.75;1.00;;;;;;;;5058907;28;62038;-78
2021/12/04 17:04:15;;;;;;;;;0.50;0.50;;;;;;;;5057693;28;62236;-79
2021/12/04 17:06:42;;;;;;;;;2.00;1.00;;;;;;;;5056294;28;61863;-77
2021/12/04 17:09:07;;;;;;;;;1.25;1.25;;;;;;;;5058806;28;61804;-78
2021/12/04 17:11:32;;;;;;;;;3.00;3.00;;;;;;;;5057558;28;62200;-76
2021/12/04 17:13:58;;;;;;;;;11.25;5.25;;;;;;;;5057857;28;63101;-79
2021/12/04 17:16:27;;;;;;;;;5.50;5.50;;;;;;;;5058288;28;61963;-79
2021/12/04 17:19:00;;;;;;;;;0.25;0.25;;;;;;;;5056052;28;61996;-78
2021/12/04 17:21:26;;;;;;;;;1.00;0.50;;;;;;;;5059865;28;61934;-78
2021/12/04 17:23:51;;;;;;;;;1.00;1.00;;;;;;;;5059073;28;61946;-78
2021/12/04 17:26:17;;;;;;;;;2.00;1.00;;;;;;;;5060135;28;61957;-78
2021/12/04 17:28:44;;;;;;;;;7.25;1.75;;;;;;;;5059839;28;62035;-78
2021/12/04 17:31:12;;;;;;;;;1.25;0.00;;;;;;;;5060374;28;61902;-78
2021/12/04 17:33:37;;;;;;;;;6.00;3.50;;;;;;;;5057425;28;62020;-78
2021/12/04 17:36:03;;;;;;;;;2.50;1.75;;;;;;;;5060011;28;62371;-78
2021/12/04 17:38:28;;;;;;;;;2.25;1.25;;;;;;;;5058812;28;62031;-78
2021/12/04 17:40:53;;;;;;;;;1.50;1.25;;;;;;;;5060720;28;62059;-79
2021/12/04 17:43:20;;;;;;;;;2.00;2.00;;;;;;;;5054887;28;63153;-78
2021/12/04 17:45:45;;;;;;;;;3.00;3.00;;;;;;;;5051644;28;62159;-78
2021/12/04 17:48:11;;;;;;;;;5.75;3.50;;;;;;;;5054749;28;62006;-78
2021/12/04 17:50:42;;;;;;;;;1.00;1.00;;;;;;;;5059920;28;62428;-77
2021/12/04 17:53:08;;;;;;;;;1.50;1.00;;;;;;;;5049965;28;62109;-77
2021/12/04 17:55:33;;;;;;;;;3.00;1.25;;;;;;;;5042075;28;61996;-78
2021/12/04 17:57:59;;;;;;;;;7.00;7.00;;;;;;;;5041861;28;61759;-79
2021/12/04 18:00:32;;;;;;;;;3.00;3.00;;;;;;;;5056429;28;61916;-79
2021/12/04 18:02:57;;;;;;;;;4.50;2.75;;;;;;;;5047632;28;61989;-79
2021/12/04 18:05:25;;;;;;;;;5.75;3.50;;;;;;;;5050497;28;61763;-76
2021/12/04 18:07:51;;;;;;;;;8.00;5.50;;;;;;;;5040245;28;62267;-79
2021/12/04 18:10:17;;;;;;;;;11.50;6.00;;;;;;;;5057999;28;61953;-83
2021/12/04 18:12:45;;;;;;;;;9.00;5.00;;;;;;;;5059706;28;63206;-76
2021/12/04 18:15:13;;;;;;;;;2.00;2.00;;;;;;;;5052561;28;62088;-75
2021/12/04 18:17:40;;;;;;;;;5.00;5.00;;;;;;;;5038321;28;62218;-78